sensor_id;sensor_type;location;lat;lon;timestamp;temperature;humidity
36134;DHT22;40492;43.524;-1.510;2022-07-23T00:02:07;20.50;99.90
36134;DHT22;40492;43.524;-1.510;2022-07-23T00:04:33;20.50;99.90
36134;DHT22;40492;43.524;-1.510;2022-07-23T00:06:59;20.40;99.90
36134;DHT22;40492;43.524;-1.510;2022-07-23T00:09:25;20.40;99.90
36134;DHT22;40492;43.524;-1.510;2022-07-23T00:11:51;20.40;99.90
36134;DHT22;40492;43.524;-1.510;2022-07-23T00:14:17;20.30;99.90
36134;DHT22;40492;43.524;-1.510;2022-07-23T00:16:43;20.30;99.90
36134;DHT22;40492;43.524;-1.510;2022-07-23T00:19:09;20.20;99.90
36134;DHT22;40492;43.524;-1.510;2022-07-23T00:21:35;20.20;99.90
36134;DHT22;40492;43.524;-1.510;2022-07-23T00:24:01;20.20;99.90
36134;DHT22;40492;43.524;-1.510;2022-07-23T00:26:27;20.20;99.90
36134;DHT22;40492;43.524;-1.510;2022-07-23T00:28:53;20.10;99.90
36134;DHT22;40492;43.524;-1.510;2022-07-23T00:31:19;20.10;99.90
36134;DHT22;40492;43.524;-1.510;2022-07-23T00:33:45;20.10;99.90
36134;DHT22;40492;43.524;-1.510;2022-07-23T00:36:11;20.00;99.90
36134;DHT22;40492;43.524;-1.510;2022-07-23T00:38:37;20.00;99.90
36134;DHT22;40492;43.524;-1.510;2022-07-23T00:41:03;20.00;99.90
36134;DHT22;40492;43.524;-1.510;2022-07-23T00:43:29;20.00;99.90
36134;DHT22;40492;43.524;-1.510;2022-07-23T00:45:55;19.90;99.90
36134;DHT22;40492;43.524;-1.510;2022-07-23T00:48:21;19.90;99.90
36134;DHT22;40492;43.524;-1.510;2022-07-23T00:50:47;19.90;99.90
36134;DHT22;40492;43.524;-1.510;2022-07-23T00:53:13;19.80;99.90
36134;DHT22;40492;43.524;-1.510;2022-07-23T00:55:40;19.90;99.90
36134;DHT22;40492;43.524;-1.510;2022-07-23T00:58:06;19.90;99.90
36134;DHT22;40492;43.524;-1.510;2022-07-23T01:00:32;19.80;99.90
36134;DHT22;40492;43.524;-1.510;2022-07-23T01:02:58;19.80;99.90
36134;DHT22;40492;43.524;-1.510;2022-07-23T01:05:25;19.90;99.90
36134;DHT22;40492;43.524;-1.510;2022-07-23T01:07:52;19.90;99.90
36134;DHT22;40492;43.524;-1.510;2022-07-23T01:10:18;20.00;99.90
36134;DHT22;40492;43.524;-1.510;2022-07-23T01:12:57;20.10;99.90
36134;DHT22;40492;43.524;-1.510;2022-07-23T01:15:23;20.20;99.90
36134;DHT22;40492;43.524;-1.510;2022-07-23T01:17:50;20.30;99.90
36134;DHT22;40492;43.524;-1.510;2022-07-23T01:20:16;20.30;99.90
36134;DHT22;40492;43.524;-1.510;2022-07-23T01:22:43;20.30;99.90
36134;DHT22;40492;43.524;-1.510;2022-07-23T01:25:09;20.40;99.90
36134;DHT22;40492;43.524;-1.510;2022-07-23T01:27:35;20.40;99.90
36134;DHT22;40492;43.524;-1.510;2022-07-23T01:30:02;20.50;99.90
36134;DHT22;40492;43.524;-1.510;2022-07-23T01:32:28;20.50;99.90
36134;DHT22;40492;43.524;-1.510;2022-07-23T01:34:54;20.50;99.90
36134;DHT22;40492;43.524;-1.510;2022-07-23T01:37:20;20.50;99.90
36134;DHT22;40492;43.524;-1.510;2022-07-23T01:39:46;20.60;99.90
36134;DHT22;40492;43.524;-1.510;2022-07-23T01:42:12;20.60;99.90
36134;DHT22;40492;43.524;-1.510;2022-07-23T01:44:38;20.60;99.90
36134;DHT22;40492;43.524;-1.510;2022-07-23T01:47:04;20.70;99.90
36134;DHT22;40492;43.524;-1.510;2022-07-23T01:49:30;20.70;99.90
36134;DHT22;40492;43.524;-1.510;2022-07-23T01:51:56;20.70;99.90
36134;DHT22;40492;43.524;-1.510;2022-07-23T01:54:33;20.70;99.90
36134;DHT22;40492;43.524;-1.510;2022-07-23T01:56:59;20.80;99.90
36134;DHT22;40492;43.524;-1.510;2022-07-23T01:59:26;20.70;99.90
36134;DHT22;40492;43.524;-1.510;2022-07-23T02:01:53;20.70;99.90
36134;DHT22;40492;43.524;-1.510;2022-07-23T02:04:20;20.70;99.90
36134;DHT22;40492;43.524;-1.510;2022-07-23T02:06:47;20.70;99.90
36134;DHT22;40492;43.524;-1.510;2022-07-23T02:09:13;20.70;99.90
36134;DHT22;40492;43.524;-1.510;2022-07-23T02:11:39;20.70;99.90
36134;DHT22;40492;43.524;-1.510;2022-07-23T02:14:05;20.70;99.90
36134;DHT22;40492;43.524;-1.510;2022-07-23T02:16:32;20.70;99.90
36134;DHT22;40492;43.524;-1.510;2022-07-23T02:18:58;20.70;99.90
36134;DHT22;40492;43.524;-1.510;2022-07-23T02:21:23;20.70;99.90
36134;DHT22;40492;43.524;-1.510;2022-07-23T02:23:49;20.70;99.90
36134;DHT22;40492;43.524;-1.510;2022-07-23T02:26:15;20.70;99.90
36134;DHT22;40492;43.524;-1.510;2022-07-23T02:28:41;20.70;99.90
36134;DHT22;40492;43.524;-1.510;2022-07-23T02:31:07;20.60;99.90
36134;DHT22;40492;43.524;-1.510;2022-07-23T02:33:33;20.60;99.90
36134;DHT22;40492;43.524;-1.510;2022-07-23T02:35:59;20.50;99.90
36134;DHT22;40492;43.524;-1.510;2022-07-23T02:38:26;20.50;99.90
36134;DHT22;40492;43.524;-1.510;2022-07-23T02:40:52;20.50;99.90
36134;DHT22;40492;43.524;-1.510;2022-07-23T02:43:18;20.40;99.90
36134;DHT22;40492;43.524;-1.510;2022-07-23T02:45:44;20.30;99.90
36134;DHT22;40492;43.524;-1.510;2022-07-23T02:48:10;20.30;99.90
36134;DHT22;40492;43.524;-1.510;2022-07-23T02:50:38;20.30;99.90
36134;DHT22;40492;43.524;-1.510;2022-07-23T02:53:04;20.20;99.90
36134;DHT22;40492;43.524;-1.510;2022-07-23T02:55:30;20.20;99.90
36134;DHT22;40492;43.524;-1.510;2022-07-23T02:57:57;20.20;99.90
36134;DHT22;40492;43.524;-1.510;2022-07-23T03:00:23;20.20;99.90
36134;DHT22;40492;43.524;-1.510;2022-07-23T03:02:49;20.20;99.90
36134;DHT22;40492;43.524;-1.510;2022-07-23T03:05:15;20.30;99.90
36134;DHT22;40492;43.524;-1.510;2022-07-23T03:07:41;20.30;99.90
36134;DHT22;40492;43.524;-1.510;2022-07-23T03:10:07;20.30;99.90
36134;DHT22;40492;43.524;-1.510;2022-07-23T03:12:33;20.20;99.90
36134;DHT22;40492;43.524;-1.510;2022-07-23T03:14:59;20.20;99.90
36134;DHT22;40492;43.524;-1.510;2022-07-23T03:17:25;20.10;99.90
36134;DHT22;40492;43.524;-1.510;2022-07-23T03:19:51;20.10;99.90
36134;DHT22;40492;43.524;-1.510;2022-07-23T03:22:17;20.10;99.90
36134;DHT22;40492;43.524;-1.510;2022-07-23T03:24:42;20.10;99.90
36134;DHT22;40492;43.524;-1.510;2022-07-23T03:27:24;20.00;99.90
36134;DHT22;40492;43.524;-1.510;2022-07-23T03:29:52;20.00;99.90
36134;DHT22;40492;43.524;-1.510;2022-07-23T03:32:18;19.90;99.90
36134;DHT22;40492;43.524;-1.510;2022-07-23T03:34:44;19.90;99.90
36134;DHT22;40492;43.524;-1.510;2022-07-23T03:37:10;19.80;99.90
36134;DHT22;40492;43.524;-1.510;2022-07-23T03:39:36;19.80;99.90
36134;DHT22;40492;43.524;-1.510;2022-07-23T03:42:02;19.80;99.90
36134;DHT22;40492;43.524;-1.510;2022-07-23T03:44:28;19.70;99.90
36134;DHT22;40492;43.524;-1.510;2022-07-23T03:46:54;19.70;99.90
36134;DHT22;40492;43.524;-1.510;2022-07-23T03:49:20;19.70;99.90
36134;DHT22;40492;43.524;-1.510;2022-07-23T03:51:46;19.70;99.90
36134;DHT22;40492;43.524;-1.510;2022-07-23T03:54:13;19.60;99.90
36134;DHT22;40492;43.524;-1.510;2022-07-23T03:56:39;19.60;99.90
36134;DHT22;40492;43.524;-1.510;2022-07-23T03:59:05;19.60;99.90
36134;DHT22;40492;43.524;-1.510;2022-07-23T04:01:31;19.50;99.90
36134;DHT22;40492;43.524;-1.510;2022-07-23T04:03:57;19.50;99.90
36134;DHT22;40492;43.524;-1.510;2022-07-23T04:06:23;19.50;99.90
36134;DHT22;40492;43.524;-1.510;2022-07-23T04:08:49;19.50;99.90
36134;DHT22;40492;43.524;-1.510;2022-07-23T04:11:15;19.50;99.90
36134;DHT22;40492;43.524;-1.510;2022-07-23T04:13:41;19.50;99.90
36134;DHT22;40492;43.524;-1.510;2022-07-23T04:16:07;19.50;99.90
36134;DHT22;40492;43.524;-1.510;2022-07-23T04:18:33;19.50;99.90
36134;DHT22;40492;43.524;-1.510;2022-07-23T04:20:59;19.50;99.90
36134;DHT22;40492;43.524;-1.510;2022-07-23T04:23:25;19.50;99.90
36134;DHT22;40492;43.524;-1.510;2022-07-23T04:25:51;19.50;99.90
36134;DHT22;40492;43.524;-1.510;2022-07-23T04:28:17;19.50;99.90
36134;DHT22;40492;43.524;-1.510;2022-07-23T04:30:43;19.50;99.90
36134;DHT22;40492;43.524;-1.510;2022-07-23T04:33:09;19.50;99.90
36134;DHT22;40492;43.524;-1.510;2022-07-23T04:35:35;19.50;99.90
36134;DHT22;40492;43.524;-1.510;2022-07-23T04:38:02;19.50;99.90
36134;DHT22;40492;43.524;-1.510;2022-07-23T04:40:29;19.50;99.90
36134;DHT22;40492;43.524;-1.510;2022-07-23T04:42:55;19.40;99.90
36134;DHT22;40492;43.524;-1.510;2022-07-23T04:45:21;19.40;99.90
36134;DHT22;40492;43.524;-1.510;2022-07-23T04:47:49;19.30;99.90
36134;DHT22;40492;43.524;-1.510;2022-07-23T04:50:15;19.30;99.90
36134;DHT22;40492;43.524;-1.510;2022-07-23T04:52:44;19.30;99.90
36134;DHT22;40492;43.524;-1.510;2022-07-23T04:55:10;19.20;99.90
36134;DHT22;40492;43.524;-1.510;2022-07-23T04:57:36;19.20;99.90
36134;DHT22;40492;43.524;-1.510;2022-07-23T05:00:03;19.10;99.90
36134;DHT22;40492;43.524;-1.510;2022-07-23T05:02:30;19.00;99.90
36134;DHT22;40492;43.524;-1.510;2022-07-23T05:04:55;19.00;99.90
36134;DHT22;40492;43.524;-1.510;2022-07-23T05:07:21;19.00;99.90
36134;DHT22;40492;43.524;-1.510;2022-07-23T05:09:48;19.00;99.90
36134;DHT22;40492;43.524;-1.510;2022-07-23T05:12:13;19.00;99.90
36134;DHT22;40492;43.524;-1.510;2022-07-23T05:14:39;19.00;99.90
36134;DHT22;40492;43.524;-1.510;2022-07-23T05:17:05;19.00;99.90
36134;DHT22;40492;43.524;-1.510;2022-07-23T05:19:34;19.00;99.90
36134;DHT22;40492;43.524;-1.510;2022-07-23T05:22:00;19.00;99.90
36134;DHT22;40492;43.524;-1.510;2022-07-23T05:24:26;19.00;99.90
36134;DHT22;40492;43.524;-1.510;2022-07-23T05:26:52;19.00;99.90
36134;DHT22;40492;43.524;-1.510;2022-07-23T05:29:18;19.10;99.90
36134;DHT22;40492;43.524;-1.510;2022-07-23T05:31:44;19.10;99.90
36134;DHT22;40492;43.524;-1.510;2022-07-23T05:34:10;19.10;99.90
36134;DHT22;40492;43.524;-1.510;2022-07-23T05:36:36;19.10;99.90
36134;DHT22;40492;43.524;-1.510;2022-07-23T05:39:03;19.20;99.90
36134;DHT22;40492;43.524;-1.510;2022-07-23T05:41:29;19.20;99.90
36134;DHT22;40492;43.524;-1.510;2022-07-23T05:43:55;19.30;99.90
36134;DHT22;40492;43.524;-1.510;2022-07-23T05:46:21;19.40;99.90
36134;DHT22;40492;43.524;-1.510;2022-07-23T05:48:47;19.50;99.90
36134;DHT22;40492;43.524;-1.510;2022-07-23T05:51:25;19.50;99.90
36134;DHT22;40492;43.524;-1.510;2022-07-23T05:53:51;19.70;99.90
36134;DHT22;40492;43.524;-1.510;2022-07-23T05:56:18;19.80;99.90
36134;DHT22;40492;43.524;-1.510;2022-07-23T05:58:44;19.80;99.90
36134;DHT22;40492;43.524;-1.510;2022-07-23T06:01:10;20.00;99.90
36134;DHT22;40492;43.524;-1.510;2022-07-23T06:03:37;20.00;99.90
36134;DHT22;40492;43.524;-1.510;2022-07-23T06:06:04;20.10;99.90
36134;DHT22;40492;43.524;-1.510;2022-07-23T06:08:30;20.10;99.90
36134;DHT22;40492;43.524;-1.510;2022-07-23T06:10:56;20.20;99.90
36134;DHT22;40492;43.524;-1.510;2022-07-23T06:13:22;20.20;99.90
36134;DHT22;40492;43.524;-1.510;2022-07-23T06:15:48;20.30;99.90
36134;DHT22;40492;43.524;-1.510;2022-07-23T06:18:14;20.30;99.90
36134;DHT22;40492;43.524;-1.510;2022-07-23T06:20:40;20.40;99.90
36134;DHT22;40492;43.524;-1.510;2022-07-23T06:23:06;20.40;99.90
36134;DHT22;40492;43.524;-1.510;2022-07-23T06:25:32;20.50;99.90
36134;DHT22;40492;43.524;-1.510;2022-07-23T06:27:58;20.60;99.90
36134;DHT22;40492;43.524;-1.510;2022-07-23T06:30:24;20.70;99.90
36134;DHT22;40492;43.524;-1.510;2022-07-23T06:32:50;20.80;99.90
36134;DHT22;40492;43.524;-1.510;2022-07-23T06:35:16;20.90;99.90
36134;DHT22;40492;43.524;-1.510;2022-07-23T06:37:42;21.00;99.90
36134;DHT22;40492;43.524;-1.510;2022-07-23T06:40:08;21.00;99.90
36134;DHT22;40492;43.524;-1.510;2022-07-23T06:42:34;21.00;99.90
36134;DHT22;40492;43.524;-1.510;2022-07-23T06:45:03;21.10;99.90
36134;DHT22;40492;43.524;-1.510;2022-07-23T06:47:29;21.20;99.90
36134;DHT22;40492;43.524;-1.510;2022-07-23T06:49:55;21.20;99.90
36134;DHT22;40492;43.524;-1.510;2022-07-23T06:52:21;21.30;99.90
36134;DHT22;40492;43.524;-1.510;2022-07-23T06:54:47;21.50;99.90
36134;DHT22;40492;43.524;-1.510;2022-07-23T06:57:13;21.60;99.90
36134;DHT22;40492;43.524;-1.510;2022-07-23T06:59:39;21.80;99.90
36134;DHT22;40492;43.524;-1.510;2022-07-23T07:02:06;21.90;99.90
36134;DHT22;40492;43.524;-1.510;2022-07-23T07:04:32;22.00;99.90
36134;DHT22;40492;43.524;-1.510;2022-07-23T07:06:58;22.10;99.90
36134;DHT22;40492;43.524;-1.510;2022-07-23T07:09:24;22.20;99.90
36134;DHT22;40492;43.524;-1.510;2022-07-23T07:11:50;22.30;99.90
36134;DHT22;40492;43.524;-1.510;2022-07-23T07:14:16;22.40;99.90
36134;DHT22;40492;43.524;-1.510;2022-07-23T07:16:42;22.50;99.90
36134;DHT22;40492;43.524;-1.510;2022-07-23T07:19:08;22.60;99.90
36134;DHT22;40492;43.524;-1.510;2022-07-23T07:21:34;22.60;99.90
36134;DHT22;40492;43.524;-1.510;2022-07-23T07:24:00;22.80;99.90
36134;DHT22;40492;43.524;-1.510;2022-07-23T07:26:26;22.90;99.90
36134;DHT22;40492;43.524;-1.510;2022-07-23T07:28:52;22.90;99.90
36134;DHT22;40492;43.524;-1.510;2022-07-23T07:31:18;23.10;99.90
36134;DHT22;40492;43.524;-1.510;2022-07-23T07:33:44;23.20;99.90
36134;DHT22;40492;43.524;-1.510;2022-07-23T07:36:10;23.40;99.90
36134;DHT22;40492;43.524;-1.510;2022-07-23T07:38:36;23.70;99.90
36134;DHT22;40492;43.524;-1.510;2022-07-23T07:41:02;23.90;99.90
36134;DHT22;40492;43.524;-1.510;2022-07-23T07:43:28;24.00;99.90
36134;DHT22;40492;43.524;-1.510;2022-07-23T07:45:54;24.20;99.90
36134;DHT22;40492;43.524;-1.510;2022-07-23T07:48:20;24.20;99.90
36134;DHT22;40492;43.524;-1.510;2022-07-23T07:50:46;24.10;99.90
36134;DHT22;40492;43.524;-1.510;2022-07-23T07:53:12;24.20;99.90
36134;DHT22;40492;43.524;-1.510;2022-07-23T07:55:38;24.30;99.90
36134;DHT22;40492;43.524;-1.510;2022-07-23T07:58:04;24.40;99.90
36134;DHT22;40492;43.524;-1.510;2022-07-23T08:00:30;24.50;99.90
36134;DHT22;40492;43.524;-1.510;2022-07-23T08:02:57;24.40;99.90
36134;DHT22;40492;43.524;-1.510;2022-07-23T08:05:25;24.30;99.90
36134;DHT22;40492;43.524;-1.510;2022-07-23T08:07:51;24.50;99.90
36134;DHT22;40492;43.524;-1.510;2022-07-23T08:10:18;24.70;99.90
36134;DHT22;40492;43.524;-1.510;2022-07-23T08:12:48;25.10;99.90
36134;DHT22;40492;43.524;-1.510;2022-07-23T08:15:18;25.30;99.90
36134;DHT22;40492;43.524;-1.510;2022-07-23T08:17:46;25.30;99.90
36134;DHT22;40492;43.524;-1.510;2022-07-23T08:20:14;25.20;99.90
36134;DHT22;40492;43.524;-1.510;2022-07-23T08:22:42;25.20;99.90
36134;DHT22;40492;43.524;-1.510;2022-07-23T08:25:09;25.30;99.90
36134;DHT22;40492;43.524;-1.510;2022-07-23T08:27:35;25.30;99.90
36134;DHT22;40492;43.524;-1.510;2022-07-23T08:30:01;25.30;99.90
36134;DHT22;40492;43.524;-1.510;2022-07-23T08:32:27;25.50;99.90
36134;DHT22;40492;43.524;-1.510;2022-07-23T08:34:53;25.60;99.90
36134;DHT22;40492;43.524;-1.510;2022-07-23T08:37:19;25.60;99.90
36134;DHT22;40492;43.524;-1.510;2022-07-23T08:39:45;25.60;99.90
36134;DHT22;40492;43.524;-1.510;2022-07-23T08:42:13;25.60;99.90
36134;DHT22;40492;43.524;-1.510;2022-07-23T08:44:43;25.60;99.90
36134;DHT22;40492;43.524;-1.510;2022-07-23T08:47:11;25.60;99.90
36134;DHT22;40492;43.524;-1.510;2022-07-23T08:49:38;25.50;99.90
36134;DHT22;40492;43.524;-1.510;2022-07-23T08:52:05;25.50;99.90
36134;DHT22;40492;43.524;-1.510;2022-07-23T08:54:31;25.60;99.90
36134;DHT22;40492;43.524;-1.510;2022-07-23T08:57:00;25.60;99.90
36134;DHT22;40492;43.524;-1.510;2022-07-23T08:59:26;25.60;99.90
36134;DHT22;40492;43.524;-1.510;2022-07-23T09:02:00;25.60;99.90
36134;DHT22;40492;43.524;-1.510;2022-07-23T09:04:31;25.60;99.90
36134;DHT22;40492;43.524;-1.510;2022-07-23T09:06:57;25.60;99.90
36134;DHT22;40492;43.524;-1.510;2022-07-23T09:09:23;25.70;99.90
36134;DHT22;40492;43.524;-1.510;2022-07-23T09:12:06;25.70;99.90
36134;DHT22;40492;43.524;-1.510;2022-07-23T09:14:43;25.60;99.90
36134;DHT22;40492;43.524;-1.510;2022-07-23T09:17:13;25.70;99.90
36134;DHT22;40492;43.524;-1.510;2022-07-23T09:19:40;25.90;99.90
36134;DHT22;40492;43.524;-1.510;2022-07-23T09:22:25;26.00;99.90
36134;DHT22;40492;43.524;-1.510;2022-07-23T09:25:15;26.10;99.90
36134;DHT22;40492;43.524;-1.510;2022-07-23T09:27:56;26.20;99.90
36134;DHT22;40492;43.524;-1.510;2022-07-23T09:30:24;26.30;99.90
36134;DHT22;40492;43.524;-1.510;2022-07-23T09:33:06;26.50;99.90
36134;DHT22;40492;43.524;-1.510;2022-07-23T09:35:55;27.10;99.90
36134;DHT22;40492;43.524;-1.510;2022-07-23T09:38:24;27.30;99.90
36134;DHT22;40492;43.524;-1.510;2022-07-23T09:41:08;27.30;99.90
36134;DHT22;40492;43.524;-1.510;2022-07-23T09:43:34;27.90;99.90
36134;DHT22;40492;43.524;-1.510;2022-07-23T09:46:26;28.40;99.90
36134;DHT22;40492;43.524;-1.510;2022-07-23T09:48:54;29.70;99.90
36134;DHT22;40492;43.524;-1.510;2022-07-23T09:51:23;30.80;99.90
36134;DHT22;40492;43.524;-1.510;2022-07-23T09:54:04;31.80;99.90
36134;DHT22;40492;43.524;-1.510;2022-07-23T09:56:33;31.30;99.90
36134;DHT22;40492;43.524;-1.510;2022-07-23T09:59:02;31.10;99.90
36134;DHT22;40492;43.524;-1.510;2022-07-23T10:01:37;32.10;98.90
36134;DHT22;40492;43.524;-1.510;2022-07-23T10:04:04;33.20;96.90
36134;DHT22;40492;43.524;-1.510;2022-07-23T10:06:31;33.40;95.30
36134;DHT22;40492;43.524;-1.510;2022-07-23T10:08:58;33.80;93.70
36134;DHT22;40492;43.524;-1.510;2022-07-23T10:11:27;33.80;92.10
36134;DHT22;40492;43.524;-1.510;2022-07-23T10:13:54;34.00;90.90
36134;DHT22;40492;43.524;-1.510;2022-07-23T10:16:22;35.40;88.80
36134;DHT22;40492;43.524;-1.510;2022-07-23T10:18:48;36.40;82.80
36134;DHT22;40492;43.524;-1.510;2022-07-23T10:21:42;37.20;77.90
36134;DHT22;40492;43.524;-1.510;2022-07-23T10:27:36;38.40;68.30
36134;DHT22;40492;43.524;-1.510;2022-07-23T10:30:10;38.90;64.30
36134;DHT22;40492;43.524;-1.510;2022-07-23T10:32:45;39.40;61.70
36134;DHT22;40492;43.524;-1.510;2022-07-23T10:35:26;39.90;59.30
36134;DHT22;40492;43.524;-1.510;2022-07-23T10:38:13;40.20;57.80
36134;DHT22;40492;43.524;-1.510;2022-07-23T10:41:00;40.60;56.20
36134;DHT22;40492;43.524;-1.510;2022-07-23T10:43:27;40.60;54.60
36134;DHT22;40492;43.524;-1.510;2022-07-23T10:45:54;40.80;54.40
36134;DHT22;40492;43.524;-1.510;2022-07-23T10:48:25;41.10;53.50
36134;DHT22;40492;43.524;-1.510;2022-07-23T10:53:53;41.70;51.70
36134;DHT22;40492;43.524;-1.510;2022-07-23T10:56:50;41.80;51.70
36134;DHT22;40492;43.524;-1.510;2022-07-23T10:59:30;41.70;50.70
36134;DHT22;40492;43.524;-1.510;2022-07-23T11:02:25;41.60;51.10
36134;DHT22;40492;43.524;-1.510;2022-07-23T11:04:52;41.70;50.10
36134;DHT22;40492;43.524;-1.510;2022-07-23T11:07:19;41.80;50.00
36134;DHT22;40492;43.524;-1.510;2022-07-23T11:09:45;41.90;49.80
36134;DHT22;40492;43.524;-1.510;2022-07-23T11:14:58;41.90;49.50
36134;DHT22;40492;43.524;-1.510;2022-07-23T11:17:25;41.40;49.80
36134;DHT22;40492;43.524;-1.510;2022-07-23T11:27:49;40.80;49.40
36134;DHT22;40492;43.524;-1.510;2022-07-23T11:35:44;41.40;48.60
36134;DHT22;40492;43.524;-1.510;2022-07-23T11:38:20;41.60;48.40
36134;DHT22;40492;43.524;-1.510;2022-07-23T11:40:54;41.80;47.80
36134;DHT22;40492;43.524;-1.510;2022-07-23T11:43:21;42.00;47.90
36134;DHT22;40492;43.524;-1.510;2022-07-23T11:45:49;42.10;47.40
36134;DHT22;40492;43.524;-1.510;2022-07-23T11:48:20;42.50;47.00
36134;DHT22;40492;43.524;-1.510;2022-07-23T11:50:47;42.60;46.80
36134;DHT22;40492;43.524;-1.510;2022-07-23T11:53:15;42.50;47.00
36134;DHT22;40492;43.524;-1.510;2022-07-23T11:55:46;42.40;46.80
36134;DHT22;40492;43.524;-1.510;2022-07-23T11:58:12;42.50;46.50
36134;DHT22;40492;43.524;-1.510;2022-07-23T12:00:40;42.60;46.40
36134;DHT22;40492;43.524;-1.510;2022-07-23T12:03:07;42.60;45.80
36134;DHT22;40492;43.524;-1.510;2022-07-23T12:05:36;42.90;46.20
36134;DHT22;40492;43.524;-1.510;2022-07-23T12:08:07;42.50;46.20
36134;DHT22;40492;43.524;-1.510;2022-07-23T12:10:41;42.60;46.00
36134;DHT22;40492;43.524;-1.510;2022-07-23T12:15:45;42.50;46.10
36134;DHT22;40492;43.524;-1.510;2022-07-23T12:18:14;42.70;46.10
36134;DHT22;40492;43.524;-1.510;2022-07-23T12:20:44;42.90;46.20
36134;DHT22;40492;43.524;-1.510;2022-07-23T12:23:13;42.90;45.90
36134;DHT22;40492;43.524;-1.510;2022-07-23T12:25:41;42.90;45.70
36134;DHT22;40492;43.524;-1.510;2022-07-23T12:28:13;43.10;45.80
36134;DHT22;40492;43.524;-1.510;2022-07-23T12:30:42;43.10;45.60
36134;DHT22;40492;43.524;-1.510;2022-07-23T12:33:11;43.10;45.60
36134;DHT22;40492;43.524;-1.510;2022-07-23T12:35:42;43.30;45.40
36134;DHT22;40492;43.524;-1.510;2022-07-23T12:38:14;43.30;45.00
36134;DHT22;40492;43.524;-1.510;2022-07-23T12:40:47;42.90;44.80
36134;DHT22;40492;43.524;-1.510;2022-07-23T12:43:22;42.90;45.00
36134;DHT22;40492;43.524;-1.510;2022-07-23T12:45:50;43.00;45.10
36134;DHT22;40492;43.524;-1.510;2022-07-23T12:48:29;43.10;44.80
36134;DHT22;40492;43.524;-1.510;2022-07-23T12:51:01;43.00;45.40
36134;DHT22;40492;43.524;-1.510;2022-07-23T12:53:39;43.10;44.80
36134;DHT22;40492;43.524;-1.510;2022-07-23T12:56:09;43.30;45.00
36134;DHT22;40492;43.524;-1.510;2022-07-23T12:58:47;43.30;44.70
36134;DHT22;40492;43.524;-1.510;2022-07-23T13:04:17;42.90;44.80
36134;DHT22;40492;43.524;-1.510;2022-07-23T13:06:54;42.80;44.90
36134;DHT22;40492;43.524;-1.510;2022-07-23T13:09:22;42.50;45.00
36134;DHT22;40492;43.524;-1.510;2022-07-23T13:11:50;42.50;45.20
36134;DHT22;40492;43.524;-1.510;2022-07-23T13:14:18;42.30;46.10
36134;DHT22;40492;43.524;-1.510;2022-07-23T13:16:45;41.90;45.80
36134;DHT22;40492;43.524;-1.510;2022-07-23T13:19:11;41.30;46.30
36134;DHT22;40492;43.524;-1.510;2022-07-23T13:21:37;40.50;47.30
36134;DHT22;40492;43.524;-1.510;2022-07-23T13:24:04;39.60;48.10
36134;DHT22;40492;43.524;-1.510;2022-07-23T13:26:30;38.90;49.30
36134;DHT22;40492;43.524;-1.510;2022-07-23T13:28:56;38.20;50.20
36134;DHT22;40492;43.524;-1.510;2022-07-23T13:31:22;37.60;51.60
36134;DHT22;40492;43.524;-1.510;2022-07-23T13:33:48;36.90;52.60
36134;DHT22;40492;43.524;-1.510;2022-07-23T13:36:15;36.60;53.50
36134;DHT22;40492;43.524;-1.510;2022-07-23T13:38:41;36.10;54.00
36134;DHT22;40492;43.524;-1.510;2022-07-23T13:41:07;35.80;54.60
36134;DHT22;40492;43.524;-1.510;2022-07-23T13:43:33;35.50;55.20
36134;DHT22;40492;43.524;-1.510;2022-07-23T13:46:00;35.00;56.10
36134;DHT22;40492;43.524;-1.510;2022-07-23T13:48:26;34.60;56.90
36134;DHT22;40492;43.524;-1.510;2022-07-23T13:50:53;34.00;58.10
36134;DHT22;40492;43.524;-1.510;2022-07-23T13:53:22;33.80;58.50
36134;DHT22;40492;43.524;-1.510;2022-07-23T13:55:50;33.80;59.50
36134;DHT22;40492;43.524;-1.510;2022-07-23T13:58:16;33.60;59.40
36134;DHT22;40492;43.524;-1.510;2022-07-23T14:00:45;33.50;59.70
36134;DHT22;40492;43.524;-1.510;2022-07-23T14:03:12;33.40;60.20
36134;DHT22;40492;43.524;-1.510;2022-07-23T14:05:38;33.10;60.60
36134;DHT22;40492;43.524;-1.510;2022-07-23T14:08:05;33.00;61.00
36134;DHT22;40492;43.524;-1.510;2022-07-23T14:10:31;32.90;61.40
36134;DHT22;40492;43.524;-1.510;2022-07-23T14:12:57;32.70;61.70
36134;DHT22;40492;43.524;-1.510;2022-07-23T14:15:26;32.70;62.10
36134;DHT22;40492;43.524;-1.510;2022-07-23T14:17:53;32.60;62.60
36134;DHT22;40492;43.524;-1.510;2022-07-23T14:20:19;32.60;62.90
36134;DHT22;40492;43.524;-1.510;2022-07-23T14:22:45;32.60;62.70
36134;DHT22;40492;43.524;-1.510;2022-07-23T14:25:11;32.60;62.70
36134;DHT22;40492;43.524;-1.510;2022-07-23T14:27:38;32.60;62.50
36134;DHT22;40492;43.524;-1.510;2022-07-23T14:30:05;32.50;62.70
36134;DHT22;40492;43.524;-1.510;2022-07-23T14:32:32;32.50;63.50
36134;DHT22;40492;43.524;-1.510;2022-07-23T14:34:58;32.40;63.30
36134;DHT22;40492;43.524;-1.510;2022-07-23T14:37:24;32.40;63.50
36134;DHT22;40492;43.524;-1.510;2022-07-23T14:39:51;32.30;63.20
36134;DHT22;40492;43.524;-1.510;2022-07-23T14:42:17;32.30;63.50
36134;DHT22;40492;43.524;-1.510;2022-07-23T14:44:44;32.20;63.80
36134;DHT22;40492;43.524;-1.510;2022-07-23T14:47:10;32.00;64.10
36134;DHT22;40492;43.524;-1.510;2022-07-23T14:49:36;32.10;64.00
36134;DHT22;40492;43.524;-1.510;2022-07-23T14:52:03;32.10;64.10
36134;DHT22;40492;43.524;-1.510;2022-07-23T14:54:29;31.90;64.20
36134;DHT22;40492;43.524;-1.510;2022-07-23T14:56:57;32.10;64.80
36134;DHT22;40492;43.524;-1.510;2022-07-23T14:59:23;32.20;64.70
36134;DHT22;40492;43.524;-1.510;2022-07-23T15:01:49;32.10;64.30
36134;DHT22;40492;43.524;-1.510;2022-07-23T15:04:15;32.30;64.50
36134;DHT22;40492;43.524;-1.510;2022-07-23T15:06:42;32.30;64.50
36134;DHT22;40492;43.524;-1.510;2022-07-23T15:09:08;32.30;64.60
36134;DHT22;40492;43.524;-1.510;2022-07-23T15:11:34;32.20;64.70
36134;DHT22;40492;43.524;-1.510;2022-07-23T15:14:04;32.40;64.80
36134;DHT22;40492;43.524;-1.510;2022-07-23T15:16:30;32.30;64.90
36134;DHT22;40492;43.524;-1.510;2022-07-23T15:18:57;32.30;65.20
36134;DHT22;40492;43.524;-1.510;2022-07-23T15:21:23;32.10;65.40
36134;DHT22;40492;43.524;-1.510;2022-07-23T15:23:49;32.20;65.50
36134;DHT22;40492;43.524;-1.510;2022-07-23T15:26:15;32.10;65.60
36134;DHT22;40492;43.524;-1.510;2022-07-23T15:28:43;32.00;65.80
36134;DHT22;40492;43.524;-1.510;2022-07-23T15:31:10;31.90;66.00
36134;DHT22;40492;43.524;-1.510;2022-07-23T15:33:36;31.80;66.50
36134;DHT22;40492;43.524;-1.510;2022-07-23T15:36:03;31.70;66.70
36134;DHT22;40492;43.524;-1.510;2022-07-23T15:38:29;31.70;67.20
36134;DHT22;40492;43.524;-1.510;2022-07-23T15:40:55;31.70;67.10
36134;DHT22;40492;43.524;-1.510;2022-07-23T15:43:22;31.70;67.70
36134;DHT22;40492;43.524;-1.510;2022-07-23T15:45:49;31.60;68.70
36134;DHT22;40492;43.524;-1.510;2022-07-23T15:48:15;31.40;68.40